createdAt,value
2023-04-28T00:00:17.297Z,25.10
2023-04-28T00:03:06.342Z,25.10
2023-04-28T00:05:36.581Z,25.00
2023-04-28T00:08:06.680Z,25.00
2023-04-28T00:10:36.110Z,24.90
2023-04-28T00:13:05.156Z,24.90
2023-04-28T00:15:34.090Z,24.90
2023-04-28T00:18:03.098Z,24.90
2023-04-28T00:20:31.895Z,24.80
2023-04-28T00:23:02.144Z,24.80
2023-04-28T00:25:31.195Z,24.80
2023-04-28T00:28:00.277Z,24.80
2023-04-28T00:30:30.933Z,24.80
2023-04-28T00:32:59.953Z,24.80
2023-04-28T00:35:28.790Z,24.80
2023-04-28T00:37:57.679Z,24.70
2023-04-28T00:40:34.979Z,24.70
2023-04-28T00:43:04.898Z,24.70
2023-04-28T00:45:33.790Z,24.70
2023-04-28T00:48:03.748Z,24.70
2023-04-28T00:50:32.515Z,24.60
2023-04-28T00:53:02.172Z,24.70
2023-04-28T00:55:36.229Z,24.60
2023-04-28T00:58:06.747Z,24.60
2023-04-28T01:00:35.713Z,24.60
2023-04-28T01:03:05.175Z,24.60
2023-04-28T01:05:38.059Z,24.60
2023-04-28T01:08:07.463Z,24.50
2023-04-28T01:10:45.260Z,24.50
2023-04-28T01:13:23.790Z,24.50
2023-04-28T01:15:53.749Z,24.50
2023-04-28T01:18:23.597Z,24.50
2023-04-28T01:20:52.438Z,24.50
2023-04-28T01:23:21.830Z,24.40
2023-04-28T01:25:51.972Z,24.40
2023-04-28T01:28:20.934Z,24.40
2023-04-28T01:30:49.612Z,24.40
2023-04-28T01:33:18.597Z,24.30
2023-04-28T01:35:47.304Z,24.40
2023-04-28T01:38:16.295Z,24.30
2023-04-28T01:40:46.367Z,24.30
2023-04-28T01:43:16.957Z,24.30
2023-04-28T01:45:46.185Z,24.30
2023-04-28T01:48:15.134Z,24.30
2023-04-28T01:50:43.893Z,24.30
2023-04-28T01:53:14.267Z,24.30
2023-04-28T01:55:43.082Z,24.30
2023-04-28T01:58:12.302Z,24.30
2023-04-28T02:00:42.474Z,24.20
2023-04-28T02:03:11.819Z,24.20
2023-04-28T02:05:40.484Z,24.20
2023-04-28T02:08:09.530Z,24.20
2023-04-28T02:10:38.347Z,24.20
2023-04-28T02:13:07.479Z,24.20
2023-04-28T02:15:40.594Z,24.10
2023-04-28T02:18:11.300Z,24.10
2023-04-28T02:20:42.072Z,24.10
2023-04-28T02:23:11.041Z,24.10
2023-04-28T02:25:39.793Z,24.10
2023-04-28T02:28:08.770Z,24.10
2023-04-28T02:30:37.518Z,24.10
2023-04-28T02:33:06.450Z,24.10
2023-04-28T02:35:36.740Z,24.10
2023-04-28T02:38:05.767Z,24.00
2023-04-28T02:40:34.448Z,24.00
2023-04-28T02:43:03.468Z,24.00
2023-04-28T02:45:32.252Z,24.00
2023-04-28T02:48:03.673Z,24.00
2023-04-28T02:50:32.382Z,23.90
2023-04-28T02:53:02.666Z,23.90
2023-04-28T02:55:32.225Z,23.90
2023-04-28T02:58:01.306Z,23.90
2023-04-28T03:00:30.681Z,23.90
2023-04-28T03:02:59.992Z,23.90
2023-04-28T03:05:29.217Z,23.90
2023-04-28T03:07:58.999Z,23.90
2023-04-28T03:10:29.411Z,23.90
2023-04-28T03:12:58.452Z,23.90
2023-04-28T03:15:27.159Z,23.80
2023-04-28T03:17:56.229Z,23.90
2023-04-28T03:20:26.152Z,23.90
2023-04-28T03:22:55.299Z,23.90
2023-04-28T03:25:24.597Z,23.90
2023-04-28T03:27:56.067Z,23.90
2023-04-28T03:30:24.835Z,23.90
2023-04-28T03:32:53.871Z,23.90
2023-04-28T03:35:22.886Z,23.90
2023-04-28T03:37:52.139Z,23.90
2023-04-28T03:40:20.985Z,23.90
2023-04-28T03:43:20.430Z,23.90
2023-04-28T03:46:07.985Z,24.00
2023-04-28T03:48:37.163Z,24.00
2023-04-28T03:51:06.198Z,24.00
2023-04-28T03:53:35.114Z,24.00
2023-04-28T03:56:03.803Z,24.00
2023-04-28T03:58:34.281Z,24.00
2023-04-28T04:01:03.253Z,24.00
2023-04-28T04:03:32.752Z,24.00
2023-04-28T04:06:02.027Z,24.00
2023-04-28T04:08:32.933Z,24.10
2023-04-28T04:11:02.609Z,24.10
2023-04-28T04:13:33.989Z,24.10
2023-04-28T04:16:08.317Z,24.10
2023-04-28T04:18:37.861Z,24.10
2023-04-28T04:21:22.270Z,24.20
2023-04-28T04:23:53.194Z,24.20
2023-04-28T04:26:22.313Z,24.30
2023-04-28T04:28:54.066Z,24.30
2023-04-28T04:31:23.087Z,24.30
2023-04-28T04:33:53.476Z,24.40
2023-04-28T04:36:23.614Z,24.40
2023-04-28T04:38:54.360Z,24.50
2023-04-28T04:41:24.897Z,24.50
2023-04-28T04:44:06.204Z,24.60
2023-04-28T04:46:41.168Z,24.60
2023-04-28T04:49:10.322Z,24.70
2023-04-28T04:51:39.090Z,24.70
2023-04-28T04:54:08.629Z,24.80
2023-04-28T04:56:38.542Z,24.90
2023-04-28T04:59:09.146Z,24.90
2023-04-28T05:01:46.980Z,25.00
2023-04-28T05:04:16.529Z,25.10
2023-04-28T05:06:45.975Z,25.10
2023-04-28T05:09:14.916Z,25.20
2023-04-28T05:11:43.637Z,25.20
2023-04-28T05:14:14.061Z,25.40
2023-04-28T05:16:44.162Z,25.40
2023-04-28T05:19:18.179Z,25.50
2023-04-28T05:21:48.062Z,25.60
2023-04-28T05:24:17.417Z,25.70
2023-04-28T05:26:46.325Z,25.80
2023-04-28T05:29:16.750Z,25.90
2023-04-28T05:31:45.559Z,26.00
2023-04-28T05:34:14.807Z,26.00
2023-04-28T05:36:45.796Z,26.10
2023-04-28T05:39:15.572Z,26.20
2023-04-28T05:41:44.453Z,26.30
2023-04-28T05:44:13.815Z,26.50
2023-04-28T05:46:43.942Z,26.70
2023-04-28T05:49:12.927Z,27.00
2023-04-28T05:51:41.643Z,27.20
2023-04-28T05:54:10.841Z,27.40
2023-04-28T05:56:44.931Z,27.60
2023-04-28T05:59:14.590Z,27.70
2023-04-28T06:01:44.940Z,27.80
2023-04-28T06:04:14.630Z,27.90
2023-04-28T06:06:43.637Z,27.90
2023-04-28T06:09:12.656Z,28.00
2023-04-28T06:11:41.310Z,28.10
2023-04-28T06:14:11.484Z,28.20
2023-04-28T06:16:40.164Z,28.30
2023-04-28T06:19:10.981Z,28.40
2023-04-28T06:21:39.625Z,28.50
2023-04-28T06:24:08.779Z,28.60
2023-04-28T06:26:38.316Z,28.70
2023-04-28T06:29:07.421Z,28.80
2023-04-28T06:31:37.152Z,28.80
2023-04-28T06:34:06.550Z,28.90
2023-04-28T06:36:37.081Z,28.90
2023-04-28T06:39:07.140Z,29.00
2023-04-28T06:41:37.052Z,29.00
2023-04-28T06:44:07.433Z,29.00
2023-04-28T06:46:38.452Z,29.00
2023-04-28T06:49:08.042Z,29.10
2023-04-28T06:51:38.166Z,29.10
2023-04-28T06:54:07.315Z,29.20
2023-04-28T06:56:37.364Z,29.10
2023-04-28T06:59:06.394Z,29.20
2023-04-28T07:01:35.261Z,29.30
2023-04-28T07:04:04.426Z,29.30
2023-04-28T07:06:33.201Z,29.40
2023-04-28T07:09:04.631Z,29.40
2023-04-28T07:11:33.773Z,29.40
2023-04-28T07:14:02.889Z,29.50
2023-04-28T07:16:31.845Z,29.60
2023-04-28T07:19:01.063Z,29.60
2023-04-28T07:21:29.808Z,29.70
2023-04-28T07:23:58.972Z,29.70
2023-04-28T07:26:29.181Z,29.80
2023-04-28T07:28:58.225Z,29.80
2023-04-28T07:31:26.991Z,29.90
2023-04-28T07:33:56.469Z,29.90
2023-04-28T07:36:25.274Z,30.00
2023-04-28T07:38:54.619Z,30.00
2023-04-28T07:41:23.872Z,30.00
2023-04-28T07:43:54.215Z,30.00
2023-04-28T07:46:23.871Z,30.00
2023-04-28T07:48:52.941Z,30.10
2023-04-28T07:51:21.807Z,30.10
2023-04-28T07:53:51.002Z,30.00
2023-04-28T07:56:19.821Z,30.10
2023-04-28T07:58:49.037Z,30.20
2023-04-28T08:01:19.257Z,30.30
2023-04-28T08:03:48.605Z,30.30
2023-04-28T08:06:17.667Z,30.30
2023-04-28T08:08:47.231Z,30.30
2023-04-28T08:11:16.010Z,30.40
2023-04-28T08:13:44.969Z,30.40
2023-04-28T08:16:13.885Z,30.40
2023-04-28T08:18:44.348Z,30.40
2023-04-28T08:21:13.127Z,30.40
2023-04-28T08:23:42.181Z,30.40
2023-04-28T08:26:10.945Z,30.40
2023-04-28T08:28:40.447Z,30.40
2023-04-28T08:31:09.156Z,30.40
2023-04-28T08:33:39.114Z,30.40
2023-04-28T08:36:11.958Z,30.40
2023-04-28T08:38:41.652Z,30.20
2023-04-28T08:41:10.648Z,30.30
2023-04-28T08:43:42.910Z,30.30
2023-04-28T08:46:12.361Z,30.20
2023-04-28T08:48:45.197Z,30.10
2023-04-28T08:51:26.816Z,30.20
2023-04-28T08:56:35.845Z,30.00
2023-04-28T08:59:06.261Z,30.00
2023-04-28T09:01:36.191Z,29.10
2023-04-28T09:04:05.609Z,29.20
2023-04-28T09:06:39.272Z,29.60
2023-04-28T09:09:22.681Z,29.90
2023-04-28T09:11:56.654Z,30.20
2023-04-28T09:14:25.868Z,30.30
2023-04-28T09:16:55.094Z,30.40
2023-04-28T09:19:24.761Z,30.60
2023-04-28T09:21:56.749Z,30.90
2023-04-28T09:24:31.379Z,31.00
2023-04-28T09:27:01.038Z,31.10
2023-04-28T09:29:30.487Z,31.30
2023-04-28T09:32:16.127Z,31.40
2023-04-28T09:34:47.078Z,31.50
2023-04-28T09:37:22.560Z,31.40
2023-04-28T09:39:54.105Z,31.50
2023-04-28T09:42:36.639Z,31.60
2023-04-28T09:45:08.288Z,31.50
2023-04-28T09:47:39.293Z,31.60
2023-04-28T09:50:12.779Z,31.50
2023-04-28T09:52:45.943Z,31.50
2023-04-28T09:55:15.370Z,31.50
2023-04-28T09:57:47.919Z,31.60
2023-04-28T10:00:20.699Z,31.60
2023-04-28T10:02:52.866Z,31.60
2023-04-28T10:05:24.246Z,31.60
2023-04-28T10:07:55.503Z,31.60
2023-04-28T10:10:25.277Z,31.50
2023-04-28T10:12:54.395Z,31.40
2023-04-28T10:15:24.815Z,31.40
2023-04-28T10:17:55.358Z,31.30
2023-04-28T10:20:26.247Z,31.30
2023-04-28T10:23:18.571Z,31.20
2023-04-28T10:25:56.190Z,31.20
2023-04-28T10:28:26.326Z,31.10
2023-04-28T10:31:12.191Z,31.20
2023-04-28T10:33:42.687Z,31.20
2023-04-28T10:36:12.338Z,31.20
2023-04-28T10:39:13.299Z,31.30
2023-04-28T10:41:42.405Z,31.30
2023-04-28T10:44:44.875Z,31.30
2023-04-28T10:47:14.027Z,31.30
2023-04-28T10:50:11.748Z,31.40
2023-04-28T10:52:51.105Z,31.40
2023-04-28T10:55:33.694Z,31.50
2023-04-28T10:58:33.603Z,31.60
2023-04-28T11:01:32.044Z,31.60
2023-04-28T11:04:10.875Z,31.70
2023-04-28T11:06:41.863Z,31.80
2023-04-28T11:09:49.895Z,31.90
2023-04-28T11:12:20.011Z,32.00
2023-04-28T11:14:48.971Z,32.20
2023-04-28T11:17:19.508Z,32.30
2023-04-28T11:19:51.313Z,32.30
2023-04-28T11:22:22.754Z,32.30
2023-04-28T11:24:58.909Z,32.30
2023-04-28T11:27:30.900Z,32.30
2023-04-28T11:30:01.570Z,32.40
2023-04-28T11:32:32.586Z,32.60
2023-04-28T11:35:01.705Z,32.60
2023-04-28T11:37:30.595Z,32.70
2023-04-28T11:39:59.670Z,32.80
2023-04-28T11:42:29.704Z,32.90
2023-04-28T11:44:58.575Z,32.80
2023-04-28T11:47:32.994Z,32.70
2023-04-28T11:50:03.419Z,32.50
2023-04-28T11:52:32.324Z,32.20
2023-04-28T11:55:02.567Z,32.20
2023-04-28T11:57:32.866Z,32.10
2023-04-28T12:00:21.809Z,32.10
2023-04-28T12:02:51.057Z,31.80
2023-04-28T12:05:22.260Z,31.70
2023-04-28T12:07:51.235Z,31.70
2023-04-28T12:10:20.626Z,31.70
2023-04-28T12:12:53.155Z,31.70
2023-04-28T12:15:24.859Z,31.70
2023-04-28T12:17:53.901Z,31.60
2023-04-28T12:20:37.935Z,31.60
2023-04-28T12:23:07.924Z,31.50
2023-04-28T12:25:45.743Z,31.50
2023-04-28T12:28:16.100Z,31.60
2023-04-28T12:30:45.528Z,31.70
2023-04-28T12:33:25.359Z,31.70
2023-04-28T12:35:55.288Z,31.80
2023-04-28T12:38:24.670Z,31.80
2023-04-28T12:40:54.244Z,31.70
2023-04-28T12:43:25.796Z,31.70
2023-04-28T12:45:56.639Z,31.60
2023-04-28T12:48:25.625Z,31.50
2023-04-28T12:50:54.736Z,31.50
2023-04-28T12:53:23.344Z,31.60
2023-04-28T12:55:52.519Z,31.60
2023-04-28T12:58:21.374Z,31.70
2023-04-28T13:00:51.774Z,31.80
2023-04-28T13:03:21.525Z,31.80
2023-04-28T13:05:51.593Z,31.80
2023-04-28T13:08:20.241Z,31.80
2023-04-28T13:10:49.195Z,31.90
2023-04-28T13:13:17.795Z,32.00
2023-04-28T13:15:47.189Z,32.00
2023-04-28T13:18:17.332Z,32.10
2023-04-28T13:20:46.308Z,32.10
2023-04-28T13:23:14.977Z,32.10
2023-04-28T13:25:44.523Z,32.20
2023-04-28T13:28:14.519Z,32.20
2023-04-28T13:30:43.446Z,32.10
2023-04-28T13:33:12.109Z,32.10
2023-04-28T13:35:42.442Z,32.10
2023-04-28T13:38:11.235Z,32.20
2023-04-28T13:40:40.137Z,32.20
2023-04-28T13:43:08.834Z,32.20
2023-04-28T13:45:37.966Z,32.30
2023-04-28T13:48:07.054Z,31.90
2023-04-28T13:50:38.136Z,32.10
2023-04-28T13:53:09.604Z,32.10
2023-04-28T13:55:39.117Z,32.20
2023-04-28T13:58:07.903Z,32.30
2023-04-28T14:00:37.629Z,32.30
2023-04-28T14:03:06.475Z,32.30
2023-04-28T14:05:48.223Z,32.30
2023-04-28T14:08:20.595Z,32.30
2023-04-28T14:10:50.639Z,32.10
2023-04-28T14:13:20.524Z,32.20
2023-04-28T14:15:58.506Z,32.20
2023-04-28T14:18:28.576Z,32.30
2023-04-28T14:20:57.795Z,32.30
2023-04-28T14:23:28.741Z,32.30
2023-04-28T14:25:58.202Z,32.40
2023-04-28T14:28:27.048Z,32.40
2023-04-28T14:30:56.558Z,32.50
2023-04-28T14:33:25.364Z,32.40
2023-04-28T14:35:54.443Z,32.20
2023-04-28T14:38:24.356Z,32.10
2023-04-28T14:40:54.772Z,32.10
2023-04-28T14:43:23.974Z,31.90
2023-04-28T14:45:53.612Z,31.80
2023-04-28T14:48:23.053Z,31.90
2023-04-28T14:50:52.421Z,31.90
2023-04-28T14:53:21.217Z,31.90
2023-04-28T14:55:50.225Z,32.00
2023-04-28T14:58:20.315Z,32.10
2023-04-28T15:00:49.362Z,32.10
2023-04-28T15:03:18.226Z,32.10
2023-04-28T15:05:47.256Z,32.10
2023-04-28T15:08:16.093Z,32.20
2023-04-28T15:10:45.392Z,32.20
2023-04-28T15:13:14.060Z,32.30
2023-04-28T15:15:44.359Z,32.30
2023-04-28T15:18:13.149Z,32.20
2023-04-28T15:20:42.261Z,32.30
2023-04-28T15:23:11.265Z,32.20
2023-04-28T15:25:40.152Z,32.20
2023-04-28T15:28:08.977Z,32.20
2023-04-28T15:30:38.196Z,32.10
2023-04-28T15:33:09.524Z,32.10
2023-04-28T15:35:39.216Z,32.10
2023-04-28T15:38:08.414Z,32.10
2023-04-28T15:40:39.462Z,32.10
2023-04-28T15:43:09.146Z,32.10
2023-04-28T15:45:39.744Z,32.10
2023-04-28T15:48:12.097Z,32.10
2023-04-28T15:50:41.764Z,32.20
2023-04-28T15:53:10.447Z,32.20
2023-04-28T15:55:39.401Z,32.20
2023-04-28T15:58:09.465Z,32.30
2023-04-28T16:00:40.661Z,32.30
2023-04-28T16:03:11.130Z,32.30
2023-04-28T16:05:40.412Z,32.40
2023-04-28T16:08:09.160Z,32.40
2023-04-28T16:10:41.181Z,32.40
2023-04-28T16:13:11.342Z,32.40
2023-04-28T16:15:41.851Z,32.40
2023-04-28T16:18:12.086Z,32.40
2023-04-28T16:20:41.304Z,32.40
2023-04-28T16:23:13.899Z,32.40
2023-04-28T16:25:43.114Z,32.50
2023-04-28T16:28:11.818Z,32.60
2023-04-28T16:30:41.085Z,32.60
2023-04-28T16:33:11.368Z,32.70
2023-04-28T16:35:40.404Z,32.70
2023-04-28T16:38:09.101Z,32.60
2023-04-28T16:40:38.112Z,32.60
2023-04-28T16:43:06.916Z,32.60
2023-04-28T16:45:35.956Z,32.60
2023-04-28T16:48:05.078Z,32.50
2023-04-28T16:50:36.144Z,32.40
2023-04-28T16:53:04.786Z,32.30
2023-04-28T16:55:33.799Z,32.30
2023-04-28T16:58:02.450Z,32.20
2023-04-28T17:00:31.654Z,32.20
2023-04-28T17:03:00.581Z,32.10
2023-04-28T17:05:29.951Z,32.10
2023-04-28T17:08:00.202Z,32.00
2023-04-28T17:10:29.350Z,32.00
2023-04-28T17:12:58.015Z,31.90
2023-04-28T17:15:27.277Z,31.90
2023-04-28T17:17:56.351Z,31.80
2023-04-28T17:20:25.813Z,31.90
2023-04-28T17:22:54.773Z,31.80
2023-04-28T17:25:25.733Z,31.70
2023-04-28T17:27:54.615Z,31.70
2023-04-28T17:30:25.976Z,31.60
2023-04-28T17:32:55.462Z,31.60
2023-04-28T17:35:24.598Z,31.50
2023-04-28T17:37:53.385Z,31.50
2023-04-28T17:40:24.172Z,31.50
2023-04-28T17:42:56.625Z,31.40
2023-04-28T17:45:25.907Z,31.40
2023-04-28T17:47:56.385Z,31.30
2023-04-28T17:50:25.837Z,31.20
2023-04-28T17:52:54.561Z,31.20
2023-04-28T17:55:23.542Z,31.20
2023-04-28T17:57:53.771Z,31.10
2023-04-28T18:00:23.028Z,31.00
2023-04-28T18:02:52.648Z,31.00
2023-04-28T18:05:24.106Z,30.90
2023-04-28T18:07:52.951Z,30.90
2023-04-28T18:10:22.044Z,30.90
2023-04-28T18:12:53.507Z,30.80
2023-04-28T18:15:24.087Z,30.70
2023-04-28T18:17:53.050Z,30.70
2023-04-28T18:20:22.240Z,30.60
2023-04-28T18:22:51.222Z,30.60
2023-04-28T18:25:20.655Z,30.60
2023-04-28T18:27:49.374Z,30.50
2023-04-28T18:30:18.428Z,30.50
2023-04-28T18:32:49.588Z,30.40
2023-04-28T18:35:19.203Z,30.40
2023-04-28T18:37:48.270Z,30.30
2023-04-28T18:40:17.477Z,30.30
2023-04-28T18:42:46.606Z,30.30
2023-04-28T18:45:15.999Z,30.30
2023-04-28T18:47:44.701Z,30.20
2023-04-28T18:50:15.418Z,30.20
2023-04-28T18:52:44.235Z,30.10
2023-04-28T18:55:14.612Z,30.10
2023-04-28T18:57:43.527Z,30.10
2023-04-28T19:00:12.848Z,30.00
2023-04-28T19:02:41.840Z,30.00
2023-04-28T19:05:11.888Z,30.00
2023-04-28T19:07:42.135Z,29.90
2023-04-28T19:10:14.065Z,29.90
2023-04-28T19:12:42.786Z,29.80
2023-04-28T19:15:11.851Z,29.80
2023-04-28T19:17:40.813Z,29.80
2023-04-28T19:20:10.622Z,29.70
2023-04-28T19:22:43.798Z,29.70
2023-04-28T19:25:13.733Z,29.70
2023-04-28T19:27:44.062Z,29.60
2023-04-28T19:30:15.075Z,29.60
2023-04-28T19:32:44.083Z,29.60
2023-04-28T19:35:13.274Z,29.60
2023-04-28T19:37:44.072Z,29.60
2023-04-28T19:40:14.290Z,29.60
2023-04-28T19:42:42.980Z,29.50
2023-04-28T19:45:12.759Z,29.50
2023-04-28T19:47:41.555Z,29.50
2023-04-28T19:50:11.662Z,29.50
2023-04-28T19:52:40.361Z,29.50
2023-04-28T19:55:11.538Z,29.40
2023-04-28T19:57:40.946Z,29.40
2023-04-28T20:00:11.504Z,29.40
2023-04-28T20:02:40.452Z,29.30
2023-04-28T20:05:10.165Z,29.30
2023-04-28T20:07:40.428Z,29.30
2023-04-28T20:10:11.776Z,29.30
2023-04-28T20:12:41.180Z,29.20
2023-04-28T20:15:10.717Z,29.20
2023-04-28T20:17:39.632Z,29.20
2023-04-28T20:20:10.070Z,29.10
2023-04-28T20:22:38.880Z,29.10
2023-04-28T20:25:10.931Z,29.10
2023-04-28T20:27:39.705Z,29.10
2023-04-28T20:30:10.166Z,29.00
2023-04-28T20:32:39.451Z,29.00
2023-04-28T20:35:08.983Z,28.90
2023-04-28T20:37:37.858Z,28.90
2023-04-28T20:40:10.235Z,28.90
2023-04-28T20:42:40.713Z,28.80
2023-04-28T20:45:11.491Z,28.80
2023-04-28T20:47:40.650Z,28.80
2023-04-28T20:50:12.162Z,28.80
2023-04-28T20:52:40.912Z,28.70
2023-04-28T20:55:11.466Z,28.70
2023-04-28T20:57:41.629Z,28.70
2023-04-28T21:00:13.041Z,28.60
2023-04-28T21:02:41.847Z,28.60
2023-04-28T21:05:11.188Z,28.60
2023-04-28T21:07:39.825Z,28.60
2023-04-28T21:10:10.675Z,28.50
2023-04-28T21:12:39.464Z,28.50
2023-04-28T21:15:10.700Z,28.50
2023-04-28T21:17:39.671Z,28.50
2023-04-28T21:20:09.848Z,28.50
2023-04-28T21:22:38.933Z,28.50
2023-04-28T21:25:08.753Z,28.50
2023-04-28T21:27:37.432Z,28.40
2023-04-28T21:30:10.261Z,28.40
2023-04-28T21:32:39.130Z,28.40
2023-04-28T21:35:09.319Z,28.40
2023-04-28T21:37:38.120Z,28.40
2023-04-28T21:40:08.973Z,28.30
2023-04-28T21:42:37.720Z,28.30
2023-04-28T21:45:10.239Z,28.30
2023-04-28T21:47:42.060Z,28.20
2023-04-28T21:50:12.538Z,28.20
2023-04-28T21:52:41.222Z,28.20
2023-04-28T21:55:11.013Z,28.20
2023-04-28T21:57:39.692Z,28.10
2023-04-28T22:00:12.699Z,28.10
2023-04-28T22:02:44.686Z,28.10
2023-04-28T22:05:13.821Z,28.10
2023-04-28T22:07:42.630Z,28.00
2023-04-28T22:10:13.382Z,28.00
2023-04-28T22:12:42.112Z,28.00
2023-04-28T22:15:12.941Z,27.90
2023-04-28T22:17:41.694Z,27.90
2023-04-28T22:20:11.941Z,27.90
2023-04-28T22:22:41.714Z,27.90
2023-04-28T22:25:11.673Z,27.90
2023-04-28T22:27:40.609Z,27.90
2023-04-28T22:30:12.578Z,27.90
2023-04-28T22:32:44.586Z,27.80
2023-04-28T22:35:14.188Z,27.90
2023-04-28T22:37:43.607Z,27.80
2023-04-28T22:40:13.091Z,27.80
2023-04-28T22:42:43.561Z,27.80
2023-04-28T22:45:14.587Z,27.80
2023-04-28T22:47:43.580Z,27.70
2023-04-28T22:50:13.047Z,27.70
2023-04-28T22:52:41.882Z,27.70
2023-04-28T22:55:11.893Z,27.70
2023-04-28T22:57:40.606Z,27.70
2023-04-28T23:00:11.193Z,27.60
2023-04-28T23:02:42.355Z,27.50
2023-04-28T23:05:11.795Z,27.50
2023-04-28T23:07:40.776Z,27.50
2023-04-28T23:10:11.528Z,27.50
2023-04-28T23:12:41.849Z,27.40
2023-04-28T23:15:11.928Z,27.40
2023-04-28T23:17:43.061Z,27.40
2023-04-28T23:20:13.300Z,27.40
2023-04-28T23:22:41.985Z,27.40
2023-04-28T23:25:11.577Z,27.40
2023-04-28T23:27:40.208Z,27.50
2023-04-28T23:30:11.117Z,27.50
2023-04-28T23:32:42.459Z,27.50
2023-04-28T23:35:11.542Z,27.50
2023-04-28T23:37:40.160Z,27.50
2023-04-28T23:40:11.757Z,27.50
2023-04-28T23:42:41.092Z,27.50
2023-04-28T23:45:11.323Z,27.40
2023-04-28T23:47:41.763Z,27.40
2023-04-28T23:50:11.772Z,27.40
2023-04-28T23:52:41.125Z,27.40
2023-04-28T23:55:13.021Z,27.40
2023-04-28T23:57:41.955Z,27.40
